Thursday, May 25, 2017, 8:24 AM EDT

KPTB, Petersburg, Dinwiddie County Airport

Location: Petersburg, VA, United States Lat: 37.183
Local Time: 8:24 AM EDT (12:24 GMT) Lon: -77.517
Time Zone: US/Eastern Elev: 193 ft

Show me the last for .
Show Decoded

2017-05-25 07:35 METAR KPTB 251135Z AUTO 00000KT 10SM CLR 15/15 A2951 RMK AO2 T01510146 =
2017-05-25 07:15 METAR KPTB 251115Z AUTO 00000KT 10SM CLR 14/14 A2951 RMK AO2 T01440140 =
2017-05-25 06:55 METAR KPTB 251055Z AUTO 00000KT 10SM CLR 15/14 A2949 RMK AO2 T01450140 =
2017-05-25 06:35 METAR KPTB 251035Z AUTO 00000KT 10SM CLR 15/14 A2949 RMK AO2 T01450140 =
2017-05-25 06:15 METAR KPTB 251015Z AUTO 00000KT 10SM -DZ SCT085 SCT110 15/14 A2949 RMK AO2
                 T01530138 =
2017-05-25 05:55 METAR KPTB 250955Z AUTO 00000KT 10SM SCT013 SCT037 BKN080 16/14 A2949 RMK AO2
                 P0008 T01550140 =
2017-05-25 05:35 METAR KPTB 250935Z AUTO 27014G27KT 5SM -RA BKN005 BKN020 OVC065 16/15 A2951 RMK
                 AO2 P0008 T01620150 =
2017-05-25 05:15 METAR KPTB 250915Z AUTO 00000KT 7SM -RA OVC003 17/17 A2948 RMK AO2 T01700166 =
2017-05-25 04:55 METAR KPTB 250855Z AUTO 00000KT 10SM -DZ OVC003 17/17 A2947 RMK AO2 P0001 60007
                 T01700165 =
2017-05-25 04:35 METAR KPTB 250835Z AUTO 00000KT 5SM -RA OVC003 17/17 A2947 RMK AO2 T01680165 =
2017-05-25 04:15 METAR KPTB 250815Z AUTO 00000KT 10SM OVC003 17/16 A2947 RMK AO2 T01660162 =
2017-05-25 03:55 METAR KPTB 250755Z AUTO 00000KT 10SM BKN003 OVC008 17/16 A2947 RMK AO2 P0004
                 T01650160 =
2017-05-25 03:35 METAR KPTB 250735Z AUTO 00000KT 10SM -RA OVC003 16/16 A2948 RMK AO2 P0003
                 T01620158 =
2017-05-25 03:15 METAR KPTB 250715Z AUTO 00000KT 4SM -RA OVC003 16/16 A2949 RMK AO2 P0003
                 T01600156 =
2017-05-25 02:55 METAR KPTB 250655Z AUTO 09004KT 7SM -RA OVC003 16/16 A2950 RMK AO2 P0002
                 T01600155 =
2017-05-25 02:35 METAR KPTB 250635Z AUTO 08006KT 7SM -RA OVC003 16/15 A2952 RMK AO2 P0001
                 T01570153 =
2017-05-25 02:15 METAR KPTB 250615Z AUTO 10005KT 4SM -RA OVC003 16/15 A2953 RMK AO2 T01560152 =
2017-05-25 01:55 METAR KPTB 250555Z AUTO 00000KT 4SM -RA OVC003 16/15 A2956 RMK AO2 P0003 60039
                 T01550150 10164 20146 =
2017-05-25 01:35 METAR KPTB 250535Z AUTO 10006KT 5SM BR OVC003 15/15 A2956 RMK AO2 P0002
                 T01530150 =
2017-05-25 01:15 METAR KPTB 250515Z AUTO 09007KT 7SM -RA OVC003 15/15 A2957 RMK AO2 P0002
                 T01510147 =
2017-05-25 00:55 METAR KPTB 250455Z AUTO 10005KT 10SM -RA OVC005 15/15 A2958 RMK AO2 P0001
                 T01500145 401850142 =
2017-05-25 00:35 METAR KPTB 250435Z AUTO 08005KT 10SM -DZ OVC005 15/14 A2958 RMK AO2 T01480143 =
2017-05-25 00:15 METAR KPTB 250415Z AUTO 08006KT 10SM -RA OVC005 15/14 A2959 RMK AO2 T01480142 =
2017-05-24 23:55 METAR KPTB 250355Z AUTO 09008KT 10SM -RA OVC005 15/14 A2960 RMK AO2 P0002
                 T01470141 =
2017-05-24 23:35 METAR KPTB 250335Z AUTO 08006KT 5SM -RA OVC005 15/14 A2962 RMK AO2 P0001
                 T01460140 =
2017-05-24 23:15 METAR KPTB 250315Z AUTO 09010G15KT 10SM OVC005 15/14 A2963 RMK AO2 T01480141 =
2017-05-24 22:55 METAR KPTB 250255Z AUTO 08006KT 10SM OVC005 15/14 A2964 RMK AO2 P0008 60033
                 T01480141 =
2017-05-24 22:35 METAR KPTB 250235Z AUTO 08007KT 10SM -RA OVC005 15/14 A2965 RMK AO2 P0007
                 T01480141 =
2017-05-24 22:15 METAR KPTB 250215Z AUTO 09005KT 7SM -RA OVC005 15/14 A2966 RMK AO2 P0001
                 T01500142 =
2017-05-24 21:55 METAR KPTB 250155Z AUTO 09007G11KT 10SM -RA OVC007 15/14 A2966 RMK AO2 P0008
                 T01500143 =
2017-05-24 21:35 METAR KPTB 250135Z AUTO 08010KT 7SM -RA BKN007 BKN080 OVC090 15/15 A2966 RMK AO2
                 P0006 T01510145 =
2017-05-24 21:15 METAR KPTB 250115Z AUTO 08008KT 7SM -RA SCT015 BKN090 OVC110 15/15 A2966 RMK AO2
                 P0005 T01520145 =
2017-05-24 20:55 METAR KPTB 250055Z AUTO 09008KT 5SM RA SCT010 SCT060 OVC100 15/15 A2968 RMK AO2
                 P0017 T01530145 =
2017-05-24 20:35 METAR KPTB 250035Z AUTO 15006KT 3SM +VCTSRA OVC010 16/15 A2972 RMK AO2 LTG DSNT
                 SE AND S P0007 T01560145 =
2017-05-24 20:15 METAR KPTB 250015Z AUTO 09009G14KT 10SM -RA OVC012 16/14 A2968 RMK AO2 T01600143
                 =
2017-05-24 19:55 METAR KPTB 242355Z AUTO 09009G15KT 10SM -RA OVC012 17/14 A2967 RMK AO2 LTG DSNT
                 S T01650143 10185 20165 =
2017-05-24 19:35 METAR KPTB 242335Z AUTO 09009KT 10SM OVC012 17/15 A2966 RMK AO2 LTG DSNT S
                 T01680146 =
2017-05-24 19:15 METAR KPTB 242315Z AUTO 09008G17KT 10SM BKN012 OVC020 17/15 A2966 RMK AO2
                 T01700147 =
2017-05-24 18:55 METAR KPTB 242255Z AUTO 09012G16KT 10SM BKN012 OVC020 17/15 A2966 RMK AO2
                 T01720150 =
2017-05-24 18:35 METAR KPTB 242235Z AUTO 08011G14KT 10SM -RA OVC012 17/15 A2968 RMK AO2 LTG DSNT
                 SW T01730150 =
2017-05-24 18:15 METAR KPTB 242215Z AUTO 00000KT 10SM OVC012 18/16 A2968 RMK AO2 T01760155 =
2017-05-24 17:55 METAR KPTB 242155Z AUTO 00000KT 10SM OVC012 18/15 A2968 RMK AO2 T01770153 =
2017-05-24 17:35 METAR KPTB 242135Z AUTO 06004KT 10SM OVC012 18/16 A2968 RMK AO2 T01800156 =
2017-05-24 17:15 METAR KPTB 242115Z AUTO 00000KT 10SM OVC014 18/16 A2967 RMK AO2 T01810156 =
2017-05-24 16:55 METAR KPTB 242055Z AUTO 00000KT 10SM OVC014 18/15 A2968 RMK AO2 T01800154 =
2017-05-24 16:35 METAR KPTB 242035Z AUTO 00000KT 10SM OVC014 18/16 A2969 RMK AO2 LTG DSNT W
                 T01840158 =
2017-05-24 16:15 METAR KPTB 242015Z AUTO 00000KT 10SM OVC012 18/15 A2969 RMK AO2 T01820154 =
2017-05-24 15:55 METAR KPTB 241955Z AUTO 00000KT 10SM OVC012 18/16 A2970 RMK AO2 T01810157 =
2017-05-24 15:35 METAR KPTB 241935Z AUTO 00000KT 10SM OVC012 18/16 A2970 RMK AO2 T01810156 =
2017-05-24 15:15 METAR KPTB 241915Z AUTO 00000KT 10SM BKN009 OVC014 18/16 A2971 RMK AO2 T01810156
                 =
2017-05-24 14:55 METAR KPTB 241855Z AUTO 00000KT 10SM OVC009 18/16 A2970 RMK AO2 T01770155 =
2017-05-24 14:35 METAR KPTB 241835Z AUTO 00000KT 10SM BKN011 OVC018 18/16 A2970 RMK AO2 T01800157
                 =
2017-05-24 14:15 METAR KPTB 241815Z AUTO 00000KT 10SM BKN009 OVC018 18/16 A2971 RMK AO2 T01820155
                 =
2017-05-24 13:55 METAR KPTB 241755Z AUTO 00000KT 10SM OVC009 18/15 A2972 RMK AO2 T01760153 10176
                 20147 =
2017-05-24 13:35 METAR KPTB 241735Z AUTO 00000KT 10SM OVC009 17/15 A2973 RMK AO2 T01730153 =
2017-05-24 13:15 METAR KPTB 241715Z AUTO 00000KT 10SM OVC009 17/15 A2974 RMK AO2 T01700150 =
2017-05-24 12:55 METAR KPTB 241655Z AUTO 00000KT 10SM OVC009 17/15 A2972 RMK AO2 T01730151 =
2017-05-24 12:35 METAR KPTB 241635Z AUTO 00000KT 10SM OVC009 17/15 A2974 RMK AO2 T01650147 =
2017-05-24 12:15 METAR KPTB 241615Z AUTO 00000KT 10SM OVC009 17/15 A2973 RMK AO2 T01650145 =
2017-05-24 11:55 METAR KPTB 241555Z AUTO 00000KT 10SM OVC009 17/15 A2972 RMK AO2 T01670146 =
2017-05-24 11:35 METAR KPTB 241535Z AUTO 00000KT 10SM OVC009 16/15 A2973 RMK AO2 T01610145 =
2017-05-24 11:15 METAR KPTB 241515Z AUTO 00000KT 10SM OVC009 16/15 A2973 RMK AO2 T01630145 =
2017-05-24 10:55 METAR KPTB 241455Z AUTO 00000KT 10SM OVC011 16/14 A2974 RMK AO2 T01630144 =
2017-05-24 10:35 METAR KPTB 241435Z AUTO 00000KT 10SM OVC011 17/15 A2973 RMK AO2 T01650146 =
2017-05-24 10:15 METAR KPTB 241415Z AUTO 00000KT 10SM OVC009 16/14 A2973 RMK AO2 T01610144 =
2017-05-24 09:55 METAR KPTB 241355Z AUTO 00000KT 10SM OVC011 16/14 A2972 RMK AO2 T01570139 =
2017-05-24 09:35 METAR KPTB 241335Z AUTO 00000KT 10SM OVC011 16/14 A2973 RMK AO2 T01570141 =
2017-05-24 09:15 METAR KPTB 241315Z AUTO 00000KT 10SM OVC011 16/14 A2972 RMK AO2 T01580143 =
2017-05-24 08:55 METAR KPTB 241255Z AUTO 00000KT 10SM OVC005 15/15 A2972 RMK AO2 T01540145 =
2017-05-24 08:35 METAR KPTB 241235Z AUTO 00000KT 10SM OVC005 15/14 A2972 RMK AO2 T01500143 =

Support USWX by starting your Amazon purchase here.